sensor_id;sensor_type;location;lat;lon;timestamp;P1;durP1;ratioP1;P2;durP2;ratioP2
59876;SDS011;45749;51.140;17.184;2023-07-28T00:00:01;3.30;;;1.13;;
59876;SDS011;45749;51.140;17.184;2023-07-28T00:02:27;1.88;;;0.95;;
59876;SDS011;45749;51.140;17.184;2023-07-28T00:04:52;4.50;;;1.33;;
59876;SDS011;45749;51.140;17.184;2023-07-28T00:07:17;2.50;;;1.25;;
59876;SDS011;45749;51.140;17.184;2023-07-28T00:09:43;1.38;;;0.90;;
59876;SDS011;45749;51.140;17.184;2023-07-28T00:12:08;1.07;;;0.97;;
59876;SDS011;45749;51.140;17.184;2023-07-28T00:14:33;3.03;;;1.10;;
59876;SDS011;45749;51.140;17.184;2023-07-28T00:16:59;2.67;;;1.47;;
59876;SDS011;45749;51.140;17.184;2023-07-28T00:19:24;3.25;;;1.40;;
59876;SDS011;45749;51.140;17.184;2023-07-28T00:21:50;3.20;;;1.17;;
59876;SDS011;45749;51.140;17.184;2023-07-28T00:24:15;1.73;;;1.27;;
59876;SDS011;45749;51.140;17.184;2023-07-28T00:26:42;3.03;;;1.10;;
59876;SDS011;45749;51.140;17.184;2023-07-28T00:29:08;1.95;;;1.67;;
59876;SDS011;45749;51.140;17.184;2023-07-28T00:31:33;2.03;;;1.13;;
59876;SDS011;45749;51.140;17.184;2023-07-28T00:33:59;3.33;;;1.23;;
59876;SDS011;45749;51.140;17.184;2023-07-28T00:36:24;1.42;;;1.30;;
59876;SDS011;45749;51.140;17.184;2023-07-28T00:38:50;2.20;;;1.23;;
59876;SDS011;45749;51.140;17.184;2023-07-28T00:41:15;2.90;;;1.08;;
59876;SDS011;45749;51.140;17.184;2023-07-28T00:43:40;1.85;;;1.00;;
59876;SDS011;45749;51.140;17.184;2023-07-28T00:46:06;6.65;;;1.33;;
59876;SDS011;45749;51.140;17.184;2023-07-28T00:48:32;3.17;;;1.25;;
59876;SDS011;45749;51.140;17.184;2023-07-28T00:50:57;3.75;;;1.40;;
59876;SDS011;45749;51.140;17.184;2023-07-28T00:53:23;2.13;;;1.50;;
59876;SDS011;45749;51.140;17.184;2023-07-28T00:55:49;3.03;;;1.65;;
59876;SDS011;45749;51.140;17.184;2023-07-28T00:58:14;4.40;;;1.20;;
59876;SDS011;45749;51.140;17.184;2023-07-28T01:00:39;1.55;;;1.40;;
59876;SDS011;45749;51.140;17.184;2023-07-28T01:03:05;3.30;;;1.33;;
59876;SDS011;45749;51.140;17.184;2023-07-28T01:05:39;2.15;;;1.27;;
59876;SDS011;45749;51.140;17.184;2023-07-28T01:08:15;3.33;;;1.33;;
59876;SDS011;45749;51.140;17.184;2023-07-28T01:10:44;2.28;;;1.40;;
59876;SDS011;45749;51.140;17.184;2023-07-28T01:13:10;2.42;;;1.42;;
59876;SDS011;45749;51.140;17.184;2023-07-28T01:15:35;2.35;;;1.42;;
59876;SDS011;45749;51.140;17.184;2023-07-28T01:18:01;3.58;;;1.35;;
59876;SDS011;45749;51.140;17.184;2023-07-28T01:20:28;1.10;;;0.98;;
59876;SDS011;45749;51.140;17.184;2023-07-28T01:23:00;2.90;;;1.40;;
59876;SDS011;45749;51.140;17.184;2023-07-28T01:25:36;3.22;;;1.38;;
59876;SDS011;45749;51.140;17.184;2023-07-28T01:28:12;1.80;;;1.10;;
59876;SDS011;45749;51.140;17.184;2023-07-28T01:30:38;2.05;;;1.10;;
59876;SDS011;45749;51.140;17.184;2023-07-28T01:33:07;3.65;;;1.45;;
59876;SDS011;45749;51.140;17.184;2023-07-28T01:35:33;1.77;;;1.10;;
59876;SDS011;45749;51.140;17.184;2023-07-28T01:38:00;3.30;;;1.45;;
59876;SDS011;45749;51.140;17.184;2023-07-28T01:40:26;2.27;;;1.20;;
59876;SDS011;45749;51.140;17.184;2023-07-28T01:42:51;1.70;;;0.98;;
59876;SDS011;45749;51.140;17.184;2023-07-28T01:45:16;1.53;;;1.00;;
59876;SDS011;45749;51.140;17.184;2023-07-28T01:47:41;2.13;;;1.13;;
59876;SDS011;45749;51.140;17.184;2023-07-28T01:50:07;1.53;;;1.43;;
59876;SDS011;45749;51.140;17.184;2023-07-28T01:52:32;4.35;;;1.30;;
59876;SDS011;45749;51.140;17.184;2023-07-28T01:54:57;3.80;;;1.60;;
59876;SDS011;45749;51.140;17.184;2023-07-28T01:57:23;3.33;;;1.37;;
59876;SDS011;45749;51.140;17.184;2023-07-28T01:59:52;2.10;;;1.45;;
59876;SDS011;45749;51.140;17.184;2023-07-28T02:02:17;5.13;;;1.45;;
59876;SDS011;45749;51.140;17.184;2023-07-28T02:04:42;2.70;;;1.85;;
59876;SDS011;45749;51.140;17.184;2023-07-28T02:07:08;1.97;;;1.60;;
59876;SDS011;45749;51.140;17.184;2023-07-28T02:09:33;2.33;;;1.57;;
59876;SDS011;45749;51.140;17.184;2023-07-28T02:11:58;1.47;;;1.27;;
59876;SDS011;45749;51.140;17.184;2023-07-28T02:14:23;2.03;;;1.37;;
59876;SDS011;45749;51.140;17.184;2023-07-28T02:16:49;2.80;;;2.10;;
59876;SDS011;45749;51.140;17.184;2023-07-28T02:19:14;3.20;;;1.73;;
59876;SDS011;45749;51.140;17.184;2023-07-28T02:21:39;4.55;;;1.67;;
59876;SDS011;45749;51.140;17.184;2023-07-28T02:24:04;3.40;;;1.40;;
59876;SDS011;45749;51.140;17.184;2023-07-28T02:26:30;2.80;;;1.40;;
59876;SDS011;45749;51.140;17.184;2023-07-28T02:28:55;3.53;;;1.33;;
59876;SDS011;45749;51.140;17.184;2023-07-28T02:31:20;2.40;;;1.50;;
59876;SDS011;45749;51.140;17.184;2023-07-28T02:33:46;2.87;;;1.40;;
59876;SDS011;45749;51.140;17.184;2023-07-28T02:36:11;2.92;;;2.00;;
59876;SDS011;45749;51.140;17.184;2023-07-28T02:38:36;10.95;;;2.50;;
59876;SDS011;45749;51.140;17.184;2023-07-28T02:41:01;3.30;;;1.90;;
59876;SDS011;45749;51.140;17.184;2023-07-28T02:43:28;2.85;;;1.55;;
59876;SDS011;45749;51.140;17.184;2023-07-28T02:45:55;2.58;;;1.80;;
59876;SDS011;45749;51.140;17.184;2023-07-28T02:48:21;2.42;;;1.60;;
59876;SDS011;45749;51.140;17.184;2023-07-28T02:50:48;2.80;;;2.00;;
59876;SDS011;45749;51.140;17.184;2023-07-28T02:53:14;2.40;;;1.85;;
59876;SDS011;45749;51.140;17.184;2023-07-28T02:55:40;3.40;;;2.33;;
59876;SDS011;45749;51.140;17.184;2023-07-28T02:58:06;2.92;;;1.98;;
59876;SDS011;45749;51.140;17.184;2023-07-28T03:00:32;2.20;;;2.00;;
59876;SDS011;45749;51.140;17.184;2023-07-28T03:02:57;4.90;;;1.80;;
59876;SDS011;45749;51.140;17.184;2023-07-28T03:05:22;3.10;;;2.00;;
59876;SDS011;45749;51.140;17.184;2023-07-28T03:07:48;3.15;;;2.20;;
59876;SDS011;45749;51.140;17.184;2023-07-28T03:10:13;5.03;;;2.25;;
59876;SDS011;45749;51.140;17.184;2023-07-28T03:12:41;4.45;;;2.00;;
59876;SDS011;45749;51.140;17.184;2023-07-28T03:15:07;3.67;;;2.15;;
59876;SDS011;45749;51.140;17.184;2023-07-28T03:17:33;4.45;;;2.15;;
59876;SDS011;45749;51.140;17.184;2023-07-28T03:19:58;2.67;;;1.85;;
59876;SDS011;45749;51.140;17.184;2023-07-28T03:22:23;2.33;;;1.53;;
59876;SDS011;45749;51.140;17.184;2023-07-28T03:24:49;1.95;;;1.70;;
59876;SDS011;45749;51.140;17.184;2023-07-28T03:27:14;3.80;;;2.30;;
59876;SDS011;45749;51.140;17.184;2023-07-28T03:29:40;2.30;;;1.95;;
59876;SDS011;45749;51.140;17.184;2023-07-28T03:32:05;3.70;;;2.15;;
59876;SDS011;45749;51.140;17.184;2023-07-28T03:34:30;4.55;;;1.70;;
59876;SDS011;45749;51.140;17.184;2023-07-28T03:36:56;3.83;;;2.17;;
59876;SDS011;45749;51.140;17.184;2023-07-28T03:39:21;2.50;;;1.67;;
59876;SDS011;45749;51.140;17.184;2023-07-28T03:41:46;3.40;;;3.00;;
59876;SDS011;45749;51.140;17.184;2023-07-28T03:44:12;4.15;;;2.05;;
59876;SDS011;45749;51.140;17.184;2023-07-28T03:46:37;3.42;;;1.98;;
59876;SDS011;45749;51.140;17.184;2023-07-28T03:49:02;2.13;;;1.58;;
59876;SDS011;45749;51.140;17.184;2023-07-28T03:51:28;2.10;;;1.80;;
59876;SDS011;45749;51.140;17.184;2023-07-28T03:53:53;3.73;;;2.10;;
59876;SDS011;45749;51.140;17.184;2023-07-28T03:56:18;2.28;;;1.85;;
59876;SDS011;45749;51.140;17.184;2023-07-28T03:58:44;2.80;;;2.47;;
59876;SDS011;45749;51.140;17.184;2023-07-28T04:01:09;2.40;;;1.60;;
59876;SDS011;45749;51.140;17.184;2023-07-28T04:03:34;2.05;;;1.67;;
59876;SDS011;45749;51.140;17.184;2023-07-28T04:06:00;1.70;;;1.60;;
59876;SDS011;45749;51.140;17.184;2023-07-28T04:08:29;3.35;;;2.42;;
59876;SDS011;45749;51.140;17.184;2023-07-28T04:10:55;2.67;;;1.90;;
59876;SDS011;45749;51.140;17.184;2023-07-28T04:13:20;5.07;;;1.90;;
59876;SDS011;45749;51.140;17.184;2023-07-28T04:15:45;2.07;;;1.87;;
59876;SDS011;45749;51.140;17.184;2023-07-28T04:18:10;1.92;;;1.70;;
59876;SDS011;45749;51.140;17.184;2023-07-28T04:20:36;3.70;;;1.48;;
59876;SDS011;45749;51.140;17.184;2023-07-28T04:23:01;1.83;;;1.60;;
59876;SDS011;45749;51.140;17.184;2023-07-28T04:25:26;1.77;;;1.45;;
59876;SDS011;45749;51.140;17.184;2023-07-28T04:27:52;1.90;;;1.60;;
59876;SDS011;45749;51.140;17.184;2023-07-28T04:30:17;1.75;;;1.50;;
59876;SDS011;45749;51.140;17.184;2023-07-28T04:32:42;2.65;;;1.65;;
59876;SDS011;45749;51.140;17.184;2023-07-28T04:35:08;4.68;;;1.80;;
59876;SDS011;45749;51.140;17.184;2023-07-28T04:37:33;2.65;;;1.90;;
59876;SDS011;45749;51.140;17.184;2023-07-28T04:39:58;1.77;;;1.67;;
59876;SDS011;45749;51.140;17.184;2023-07-28T04:42:23;1.57;;;1.20;;
59876;SDS011;45749;51.140;17.184;2023-07-28T04:44:49;4.40;;;1.52;;
59876;SDS011;45749;51.140;17.184;2023-07-28T04:47:14;2.88;;;1.60;;
59876;SDS011;45749;51.140;17.184;2023-07-28T04:49:39;2.00;;;1.50;;
59876;SDS011;45749;51.140;17.184;2023-07-28T04:52:05;1.95;;;1.30;;
59876;SDS011;45749;51.140;17.184;2023-07-28T04:54:31;3.13;;;1.98;;
59876;SDS011;45749;51.140;17.184;2023-07-28T04:56:56;1.40;;;1.10;;
59876;SDS011;45749;51.140;17.184;2023-07-28T04:59:22;1.67;;;1.30;;
59876;SDS011;45749;51.140;17.184;2023-07-28T05:01:47;1.90;;;1.35;;
59876;SDS011;45749;51.140;17.184;2023-07-28T05:04:12;4.03;;;1.50;;
59876;SDS011;45749;51.140;17.184;2023-07-28T05:06:37;1.90;;;1.10;;
59876;SDS011;45749;51.140;17.184;2023-07-28T05:09:03;3.50;;;1.40;;
59876;SDS011;45749;51.140;17.184;2023-07-28T05:11:28;3.28;;;1.25;;
59876;SDS011;45749;51.140;17.184;2023-07-28T05:13:53;1.92;;;1.73;;
59876;SDS011;45749;51.140;17.184;2023-07-28T05:16:18;2.53;;;1.40;;
59876;SDS011;45749;51.140;17.184;2023-07-28T05:18:44;2.03;;;1.50;;
59876;SDS011;45749;51.140;17.184;2023-07-28T05:21:09;2.50;;;1.13;;
59876;SDS011;45749;51.140;17.184;2023-07-28T05:23:34;1.23;;;1.13;;
59876;SDS011;45749;51.140;17.184;2023-07-28T05:25:59;1.65;;;1.08;;
59876;SDS011;45749;51.140;17.184;2023-07-28T05:28:25;0.70;;;0.70;;
59876;SDS011;45749;51.140;17.184;2023-07-28T05:30:50;1.40;;;1.00;;
59876;SDS011;45749;51.140;17.184;2023-07-28T05:33:15;2.53;;;1.00;;
59876;SDS011;45749;51.140;17.184;2023-07-28T05:35:41;2.58;;;0.70;;
59876;SDS011;45749;51.140;17.184;2023-07-28T05:38:06;2.00;;;1.23;;
59876;SDS011;45749;51.140;17.184;2023-07-28T05:40:31;3.72;;;1.20;;
59876;SDS011;45749;51.140;17.184;2023-07-28T05:42:57;1.48;;;0.90;;
59876;SDS011;45749;51.140;17.184;2023-07-28T05:45:22;2.53;;;1.00;;
59876;SDS011;45749;51.140;17.184;2023-07-28T05:47:47;1.52;;;0.80;;
59876;SDS011;45749;51.140;17.184;2023-07-28T05:50:13;1.90;;;1.03;;
59876;SDS011;45749;51.140;17.184;2023-07-28T05:52:38;1.10;;;0.82;;
59876;SDS011;45749;51.140;17.184;2023-07-28T05:55:03;0.67;;;0.63;;
59876;SDS011;45749;51.140;17.184;2023-07-28T05:57:29;1.40;;;0.85;;
59876;SDS011;45749;51.140;17.184;2023-07-28T05:59:54;2.17;;;1.00;;
59876;SDS011;45749;51.140;17.184;2023-07-28T06:02:19;2.20;;;1.10;;
59876;SDS011;45749;51.140;17.184;2023-07-28T06:04:45;1.20;;;1.10;;
59876;SDS011;45749;51.140;17.184;2023-07-28T06:07:10;2.57;;;1.03;;
59876;SDS011;45749;51.140;17.184;2023-07-28T06:09:35;1.00;;;0.70;;
59876;SDS011;45749;51.140;17.184;2023-07-28T06:12:01;0.80;;;0.80;;
59876;SDS011;45749;51.140;17.184;2023-07-28T06:14:26;0.88;;;0.77;;
59876;SDS011;45749;51.140;17.184;2023-07-28T06:16:51;1.08;;;0.80;;
59876;SDS011;45749;51.140;17.184;2023-07-28T06:19:17;2.80;;;1.10;;
59876;SDS011;45749;51.140;17.184;2023-07-28T06:21:48;1.40;;;1.08;;
59876;SDS011;45749;51.140;17.184;2023-07-28T06:24:14;2.20;;;0.80;;
59876;SDS011;45749;51.140;17.184;2023-07-28T06:26:39;3.72;;;1.15;;
59876;SDS011;45749;51.140;17.184;2023-07-28T06:29:04;2.37;;;1.03;;
59876;SDS011;45749;51.140;17.184;2023-07-28T06:31:30;2.35;;;1.10;;
59876;SDS011;45749;51.140;17.184;2023-07-28T06:33:55;1.88;;;1.15;;
59876;SDS011;45749;51.140;17.184;2023-07-28T06:36:21;1.52;;;1.05;;
59876;SDS011;45749;51.140;17.184;2023-07-28T06:38:46;1.50;;;1.02;;
59876;SDS011;45749;51.140;17.184;2023-07-28T06:41:14;1.65;;;0.98;;
59876;SDS011;45749;51.140;17.184;2023-07-28T06:43:39;2.35;;;0.95;;
59876;SDS011;45749;51.140;17.184;2023-07-28T06:46:05;1.35;;;1.00;;
59876;SDS011;45749;51.140;17.184;2023-07-28T06:48:30;2.03;;;0.80;;
59876;SDS011;45749;51.140;17.184;2023-07-28T06:50:55;5.40;;;1.52;;
59876;SDS011;45749;51.140;17.184;2023-07-28T06:53:21;1.38;;;1.15;;
59876;SDS011;45749;51.140;17.184;2023-07-28T06:55:46;1.52;;;1.10;;
59876;SDS011;45749;51.140;17.184;2023-07-28T06:58:11;0.93;;;0.93;;
59876;SDS011;45749;51.140;17.184;2023-07-28T07:00:37;1.60;;;0.90;;
59876;SDS011;45749;51.140;17.184;2023-07-28T07:03:02;2.05;;;0.80;;
59876;SDS011;45749;51.140;17.184;2023-07-28T07:05:27;0.65;;;0.57;;
59876;SDS011;45749;51.140;17.184;2023-07-28T07:07:53;3.40;;;0.60;;
59876;SDS011;45749;51.140;17.184;2023-07-28T07:10:19;2.35;;;0.60;;
59876;SDS011;45749;51.140;17.184;2023-07-28T07:12:45;1.58;;;0.65;;
59876;SDS011;45749;51.140;17.184;2023-07-28T07:15:11;0.95;;;0.70;;
59876;SDS011;45749;51.140;17.184;2023-07-28T07:17:36;1.25;;;0.60;;
59876;SDS011;45749;51.140;17.184;2023-07-28T07:20:02;1.30;;;0.47;;
59876;SDS011;45749;51.140;17.184;2023-07-28T07:22:28;1.65;;;0.75;;
59876;SDS011;45749;51.140;17.184;2023-07-28T07:24:53;0.75;;;0.45;;
59876;SDS011;45749;51.140;17.184;2023-07-28T07:27:18;0.30;;;0.30;;
59876;SDS011;45749;51.140;17.184;2023-07-28T07:29:43;0.52;;;0.30;;
59876;SDS011;45749;51.140;17.184;2023-07-28T07:32:09;1.77;;;0.40;;
59876;SDS011;45749;51.140;17.184;2023-07-28T07:34:36;0.70;;;0.40;;
59876;SDS011;45749;51.140;17.184;2023-07-28T07:37:03;0.75;;;0.40;;
59876;SDS011;45749;51.140;17.184;2023-07-28T07:39:28;0.43;;;0.43;;
59876;SDS011;45749;51.140;17.184;2023-07-28T07:41:54;0.50;;;0.30;;
59876;SDS011;45749;51.140;17.184;2023-07-28T07:44:19;0.32;;;0.30;;
59876;SDS011;45749;51.140;17.184;2023-07-28T07:46:45;0.30;;;0.30;;
59876;SDS011;45749;51.140;17.184;2023-07-28T07:49:10;0.67;;;0.47;;
59876;SDS011;45749;51.140;17.184;2023-07-28T07:51:35;1.63;;;0.40;;
59876;SDS011;45749;51.140;17.184;2023-07-28T07:54:01;1.42;;;0.50;;
59876;SDS011;45749;51.140;17.184;2023-07-28T07:56:26;0.43;;;0.22;;
59876;SDS011;45749;51.140;17.184;2023-07-28T07:58:52;1.05;;;0.40;;
59876;SDS011;45749;51.140;17.184;2023-07-28T08:01:17;0.40;;;0.30;;
59876;SDS011;45749;51.140;17.184;2023-07-28T08:03:43;0.60;;;0.50;;
59876;SDS011;45749;51.140;17.184;2023-07-28T08:06:08;0.87;;;0.50;;
59876;SDS011;45749;51.140;17.184;2023-07-28T08:08:36;0.68;;;0.45;;
59876;SDS011;45749;51.140;17.184;2023-07-28T08:11:01;0.85;;;0.30;;
59876;SDS011;45749;51.140;17.184;2023-07-28T08:13:27;0.50;;;0.35;;
59876;SDS011;45749;51.140;17.184;2023-07-28T08:15:53;0.60;;;0.40;;
59876;SDS011;45749;51.140;17.184;2023-07-28T08:18:19;0.55;;;0.32;;
59876;SDS011;45749;51.140;17.184;2023-07-28T08:20:44;0.80;;;0.40;;
59876;SDS011;45749;51.140;17.184;2023-07-28T08:23:10;0.90;;;0.45;;
59876;SDS011;45749;51.140;17.184;2023-07-28T08:25:36;1.05;;;0.45;;
59876;SDS011;45749;51.140;17.184;2023-07-28T08:28:01;1.65;;;0.35;;
59876;SDS011;45749;51.140;17.184;2023-07-28T08:30:26;2.00;;;0.50;;
59876;SDS011;45749;51.140;17.184;2023-07-28T08:32:52;0.52;;;0.30;;
59876;SDS011;45749;51.140;17.184;2023-07-28T08:35:17;0.47;;;0.27;;
59876;SDS011;45749;51.140;17.184;2023-07-28T08:37:43;0.75;;;0.30;;
59876;SDS011;45749;51.140;17.184;2023-07-28T08:40:09;1.13;;;0.40;;
59876;SDS011;45749;51.140;17.184;2023-07-28T08:42:36;1.10;;;0.30;;
59876;SDS011;45749;51.140;17.184;2023-07-28T08:45:03;0.93;;;0.32;;
59876;SDS011;45749;51.140;17.184;2023-07-28T08:47:30;1.63;;;0.40;;
59876;SDS011;45749;51.140;17.184;2023-07-28T08:49:56;1.63;;;0.50;;
59876;SDS011;45749;51.140;17.184;2023-07-28T08:52:22;1.13;;;0.52;;
59876;SDS011;45749;51.140;17.184;2023-07-28T08:54:48;1.75;;;0.40;;
59876;SDS011;45749;51.140;17.184;2023-07-28T08:57:14;0.82;;;0.55;;
59876;SDS011;45749;51.140;17.184;2023-07-28T08:59:39;1.95;;;0.80;;
59876;SDS011;45749;51.140;17.184;2023-07-28T09:02:08;1.55;;;0.70;;
59876;SDS011;45749;51.140;17.184;2023-07-28T09:04:35;3.35;;;0.77;;
59876;SDS011;45749;51.140;17.184;2023-07-28T09:07:00;1.10;;;0.63;;
59876;SDS011;45749;51.140;17.184;2023-07-28T09:09:31;2.60;;;0.70;;
59876;SDS011;45749;51.140;17.184;2023-07-28T09:11:57;1.77;;;0.70;;
59876;SDS011;45749;51.140;17.184;2023-07-28T09:14:23;1.15;;;0.40;;
59876;SDS011;45749;51.140;17.184;2023-07-28T09:16:51;5.35;;;1.83;;
59876;SDS011;45749;51.140;17.184;2023-07-28T09:19:19;1.85;;;0.70;;
59876;SDS011;45749;51.140;17.184;2023-07-28T09:21:45;0.82;;;0.52;;
59876;SDS011;45749;51.140;17.184;2023-07-28T09:24:22;1.48;;;0.50;;
59876;SDS011;45749;51.140;17.184;2023-07-28T09:26:56;2.05;;;0.57;;
59876;SDS011;45749;51.140;17.184;2023-07-28T09:29:23;1.77;;;0.50;;
59876;SDS011;45749;51.140;17.184;2023-07-28T09:31:49;0.50;;;0.32;;
59876;SDS011;45749;51.140;17.184;2023-07-28T09:34:23;1.10;;;0.63;;
59876;SDS011;45749;51.140;17.184;2023-07-28T09:36:55;0.75;;;0.60;;
59876;SDS011;45749;51.140;17.184;2023-07-28T09:39:22;1.10;;;0.80;;
59876;SDS011;45749;51.140;17.184;2023-07-28T09:41:47;0.55;;;0.40;;
59876;SDS011;45749;51.140;17.184;2023-07-28T09:44:13;1.33;;;0.60;;
59876;SDS011;45749;51.140;17.184;2023-07-28T09:46:52;2.25;;;0.60;;
59876;SDS011;45749;51.140;17.184;2023-07-28T09:49:26;1.35;;;0.40;;
59876;SDS011;45749;51.140;17.184;2023-07-28T09:51:54;0.70;;;0.50;;
59876;SDS011;45749;51.140;17.184;2023-07-28T09:54:28;0.82;;;0.82;;
59876;SDS011;45749;51.140;17.184;2023-07-28T09:56:58;1.15;;;0.93;;
59876;SDS011;45749;51.140;17.184;2023-07-28T09:59:32;1.77;;;0.70;;
59876;SDS011;45749;51.140;17.184;2023-07-28T10:02:02;3.22;;;1.02;;
59876;SDS011;45749;51.140;17.184;2023-07-28T10:04:29;2.05;;;0.70;;
59876;SDS011;45749;51.140;17.184;2023-07-28T10:06:55;1.08;;;0.90;;
59876;SDS011;45749;51.140;17.184;2023-07-28T10:09:28;0.98;;;0.65;;
59876;SDS011;45749;51.140;17.184;2023-07-28T10:11:58;0.73;;;0.63;;
59876;SDS011;45749;51.140;17.184;2023-07-28T10:17:05;1.13;;;0.75;;
59876;SDS011;45749;51.140;17.184;2023-07-28T10:19:34;4.13;;;0.70;;
59876;SDS011;45749;51.140;17.184;2023-07-28T10:22:01;1.38;;;0.63;;
59876;SDS011;45749;51.140;17.184;2023-07-28T10:29:59;1.67;;;0.70;;
59876;SDS011;45749;51.140;17.184;2023-07-28T10:32:26;1.63;;;1.30;;
59876;SDS011;45749;51.140;17.184;2023-07-28T10:35:00;2.20;;;1.52;;
59876;SDS011;45749;51.140;17.184;2023-07-28T10:37:26;4.38;;;1.60;;
59876;SDS011;45749;51.140;17.184;2023-07-28T10:40:21;2.38;;;1.25;;
59876;SDS011;45749;51.140;17.184;2023-07-28T10:42:56;0.82;;;0.75;;
59876;SDS011;45749;51.140;17.184;2023-07-28T10:45:23;1.58;;;0.63;;
59876;SDS011;45749;51.140;17.184;2023-07-28T10:47:52;1.50;;;0.90;;
59876;SDS011;45749;51.140;17.184;2023-07-28T10:50:20;1.30;;;0.70;;
59876;SDS011;45749;51.140;17.184;2023-07-28T10:52:46;0.65;;;0.63;;
59876;SDS011;45749;51.140;17.184;2023-07-28T10:55:12;1.48;;;0.80;;
59876;SDS011;45749;51.140;17.184;2023-07-28T10:57:42;3.03;;;0.85;;
59876;SDS011;45749;51.140;17.184;2023-07-28T11:00:09;1.92;;;0.73;;
59876;SDS011;45749;51.140;17.184;2023-07-28T11:02:46;1.52;;;0.70;;
59876;SDS011;45749;51.140;17.184;2023-07-28T11:05:22;0.50;;;0.50;;
59876;SDS011;45749;51.140;17.184;2023-07-28T11:07:50;0.77;;;0.77;;
59876;SDS011;45749;51.140;17.184;2023-07-28T11:10:19;0.50;;;0.50;;
59876;SDS011;45749;51.140;17.184;2023-07-28T11:12:46;1.08;;;0.50;;
59876;SDS011;45749;51.140;17.184;2023-07-28T11:15:14;0.45;;;0.45;;
59876;SDS011;45749;51.140;17.184;2023-07-28T11:17:41;0.63;;;0.52;;
59876;SDS011;45749;51.140;17.184;2023-07-28T11:20:23;1.35;;;0.73;;
59876;SDS011;45749;51.140;17.184;2023-07-28T11:22:53;1.33;;;0.77;;
59876;SDS011;45749;51.140;17.184;2023-07-28T11:25:23;0.95;;;0.70;;
59876;SDS011;45749;51.140;17.184;2023-07-28T11:27:50;0.70;;;0.50;;
59876;SDS011;45749;51.140;17.184;2023-07-28T11:30:16;1.92;;;0.52;;
59876;SDS011;45749;51.140;17.184;2023-07-28T11:32:43;0.82;;;0.60;;
59876;SDS011;45749;51.140;17.184;2023-07-28T11:35:10;0.75;;;0.50;;
59876;SDS011;45749;51.140;17.184;2023-07-28T11:37:40;3.38;;;0.63;;
59876;SDS011;45749;51.140;17.184;2023-07-28T11:40:08;1.60;;;0.55;;
59876;SDS011;45749;51.140;17.184;2023-07-28T11:42:38;0.82;;;0.55;;
59876;SDS011;45749;51.140;17.184;2023-07-28T11:45:12;1.52;;;0.50;;
59876;SDS011;45749;51.140;17.184;2023-07-28T11:47:39;2.45;;;0.60;;
59876;SDS011;45749;51.140;17.184;2023-07-28T11:50:04;3.05;;;0.60;;
59876;SDS011;45749;51.140;17.184;2023-07-28T11:52:33;3.83;;;0.70;;
59876;SDS011;45749;51.140;17.184;2023-07-28T11:55:04;1.60;;;0.98;;
59876;SDS011;45749;51.140;17.184;2023-07-28T11:57:31;1.55;;;0.50;;
59876;SDS011;45749;51.140;17.184;2023-07-28T11:59:57;0.70;;;0.65;;
59876;SDS011;45749;51.140;17.184;2023-07-28T12:02:26;0.50;;;0.50;;
59876;SDS011;45749;51.140;17.184;2023-07-28T12:04:53;3.13;;;1.02;;
59876;SDS011;45749;51.140;17.184;2023-07-28T12:07:20;1.05;;;0.38;;
59876;SDS011;45749;51.140;17.184;2023-07-28T12:09:53;0.93;;;0.73;;
59876;SDS011;45749;51.140;17.184;2023-07-28T12:12:28;0.60;;;0.50;;
59876;SDS011;45749;51.140;17.184;2023-07-28T12:14:55;0.88;;;0.60;;
59876;SDS011;45749;51.140;17.184;2023-07-28T12:17:24;1.33;;;0.80;;
59876;SDS011;45749;51.140;17.184;2023-07-28T12:20:06;0.93;;;0.55;;
59876;SDS011;45749;51.140;17.184;2023-07-28T12:22:42;1.05;;;0.60;;
59876;SDS011;45749;51.140;17.184;2023-07-28T12:25:09;2.00;;;0.75;;
59876;SDS011;45749;51.140;17.184;2023-07-28T12:27:36;1.20;;;0.60;;
59876;SDS011;45749;51.140;17.184;2023-07-28T12:30:02;2.35;;;1.00;;
59876;SDS011;45749;51.140;17.184;2023-07-28T12:32:28;3.67;;;1.70;;
59876;SDS011;45749;51.140;17.184;2023-07-28T12:34:53;3.20;;;0.90;;
59876;SDS011;45749;51.140;17.184;2023-07-28T12:37:19;2.15;;;0.60;;
59876;SDS011;45749;51.140;17.184;2023-07-28T12:39:45;0.70;;;0.50;;
59876;SDS011;45749;51.140;17.184;2023-07-28T12:42:11;2.95;;;0.80;;
59876;SDS011;45749;51.140;17.184;2023-07-28T12:44:36;2.20;;;0.70;;
59876;SDS011;45749;51.140;17.184;2023-07-28T12:47:02;1.73;;;0.70;;
59876;SDS011;45749;51.140;17.184;2023-07-28T12:49:28;0.40;;;0.40;;
59876;SDS011;45749;51.140;17.184;2023-07-28T12:51:58;1.33;;;0.60;;
59876;SDS011;45749;51.140;17.184;2023-07-28T12:54:24;1.58;;;0.55;;
59876;SDS011;45749;51.140;17.184;2023-07-28T12:56:50;0.73;;;0.60;;
59876;SDS011;45749;51.140;17.184;2023-07-28T12:59:16;1.30;;;0.60;;
59876;SDS011;45749;51.140;17.184;2023-07-28T13:01:41;1.73;;;0.60;;
59876;SDS011;45749;51.140;17.184;2023-07-28T13:04:06;1.50;;;0.60;;
59876;SDS011;45749;51.140;17.184;2023-07-28T13:06:32;0.93;;;0.43;;
59876;SDS011;45749;51.140;17.184;2023-07-28T13:08:58;3.13;;;0.50;;
59876;SDS011;45749;51.140;17.184;2023-07-28T13:11:24;0.88;;;0.40;;
59876;SDS011;45749;51.140;17.184;2023-07-28T13:13:49;0.50;;;0.50;;
59876;SDS011;45749;51.140;17.184;2023-07-28T13:16:15;1.33;;;0.47;;
59876;SDS011;45749;51.140;17.184;2023-07-28T13:18:41;1.73;;;0.30;;
59876;SDS011;45749;51.140;17.184;2023-07-28T13:21:08;0.60;;;0.38;;
59876;SDS011;45749;51.140;17.184;2023-07-28T13:23:33;0.93;;;0.65;;
59876;SDS011;45749;51.140;17.184;2023-07-28T13:25:58;1.00;;;0.40;;
59876;SDS011;45749;51.140;17.184;2023-07-28T13:28:24;1.92;;;0.40;;
59876;SDS011;45749;51.140;17.184;2023-07-28T13:30:50;1.30;;;0.30;;
59876;SDS011;45749;51.140;17.184;2023-07-28T13:33:16;1.40;;;0.40;;
59876;SDS011;45749;51.140;17.184;2023-07-28T13:35:41;0.60;;;0.60;;
59876;SDS011;45749;51.140;17.184;2023-07-28T13:38:06;1.23;;;0.50;;
59876;SDS011;45749;51.140;17.184;2023-07-28T13:40:31;0.63;;;0.50;;
59876;SDS011;45749;51.140;17.184;2023-07-28T13:42:57;2.30;;;0.40;;
59876;SDS011;45749;51.140;17.184;2023-07-28T13:45:22;1.03;;;0.20;;
59876;SDS011;45749;51.140;17.184;2023-07-28T13:47:47;0.88;;;0.40;;
59876;SDS011;45749;51.140;17.184;2023-07-28T13:50:13;0.63;;;0.60;;
59876;SDS011;45749;51.140;17.184;2023-07-28T13:52:38;2.17;;;0.50;;
59876;SDS011;45749;51.140;17.184;2023-07-28T13:55:03;1.67;;;0.65;;
59876;SDS011;45749;51.140;17.184;2023-07-28T13:57:31;0.50;;;0.32;;
59876;SDS011;45749;51.140;17.184;2023-07-28T13:59:57;0.50;;;0.40;;
59876;SDS011;45749;51.140;17.184;2023-07-28T14:02:22;3.60;;;0.40;;
59876;SDS011;45749;51.140;17.184;2023-07-28T14:04:47;0.55;;;0.20;;
59876;SDS011;45749;51.140;17.184;2023-07-28T14:07:13;3.38;;;0.52;;
59876;SDS011;45749;51.140;17.184;2023-07-28T14:09:38;0.97;;;0.53;;
59876;SDS011;45749;51.140;17.184;2023-07-28T14:12:04;1.38;;;0.32;;
59876;SDS011;45749;51.140;17.184;2023-07-28T14:14:29;2.67;;;0.60;;
59876;SDS011;45749;51.140;17.184;2023-07-28T14:16:54;0.97;;;0.33;;
59876;SDS011;45749;51.140;17.184;2023-07-28T14:19:20;0.83;;;0.20;;
59876;SDS011;45749;51.140;17.184;2023-07-28T14:21:45;0.57;;;0.32;;
59876;SDS011;45749;51.140;17.184;2023-07-28T14:24:10;2.07;;;0.40;;
59876;SDS011;45749;51.140;17.184;2023-07-28T14:26:36;0.68;;;0.30;;
59876;SDS011;45749;51.140;17.184;2023-07-28T14:29:01;0.65;;;0.30;;
59876;SDS011;45749;51.140;17.184;2023-07-28T14:31:26;0.68;;;0.22;;
59876;SDS011;45749;51.140;17.184;2023-07-28T14:33:52;1.20;;;0.40;;
59876;SDS011;45749;51.140;17.184;2023-07-28T14:36:17;1.50;;;0.47;;